KHTL/HTL METAR and TAF weather

Enter ICAO airport designator
Station Type Date Time Source
KHTL METAR 2019/05/21 20:53 UTC NOAA

KHTL 212053Z AUTO 18010KT 10SM CLR 19/02 A3016 RMK AO2 SLP217 T01890017 56006


Station Type Date Time Source
KHTL Decoded METAR 2019/05/21 20:53 UTC NOAA

ROSCOMMON COUNTY AIRPORT, MI, United States (KHTL) 44-21N 084-40W 351M
May 21, 2019 - 04:53 PM EDT / 2019.05.21 2053 UTC
Wind: from the S (180 degrees) at 12 MPH (10 KT):0
Visibility: 10 mile(s):0
Sky conditions: clear
Temperature: 66.0 F (18.9 C)
Dew Point: 35.1 F (1.7 C)
Relative Humidity: 31%
Pressure (altimeter): 30.16 in. Hg (1021 hPa)
Pressure tendency: 0.02 inches (0.6 hPa) lower than three hours ago
ob: KHTL 212053Z AUTO 18010KT 10SM CLR 19/02 A3016 RMK AO2 SLP217 T01890017 56006
cycle: 21

Station Type Date Time Source
KHTL TAF UTC NOAA

Error!

Example: see airport list